Aérodrome :
LOGIN :

S'inscrire | Disclaimer

   EN    FR    IT 

 










Légende :    VFR   VFR Marginal   IFR   IFR Intensif   IFR Très Intensif
Visi : 
Plafond : 
>= 8 km
>= 3000ft
5 à 8 km
1000 à 3000 ft
1500m à 5 km
500 à 1000 ft
800 à 1500m
200 à 500 ft
< 800m
< 200 ft
Symboles :   Orages  Brouillard  Fortes neiges  Fortes précipitations  Vent > 20 kt
SIGMETs :   Divers  Orages  Givrage  Turbulence  Onde Orograph.  Cendres Volcan.






- Altitude de l'aérodrome : 171 ft
- Code IATA : EGC


LFBE - Bergerac

DERNIER METAR :
  • 240900Z AUTO 26005KT 3200 BR OVC022 07/06 Q1019 TEMPO SHRA BKN025TCU

METARs EXPIRÉS :
  • 240830Z AUTO VRB02KT 5000 -RADZ BR SCT025 OVC033 07/05 Q1019 TEMPO SHRA BKN025TCU
  • 240800Z AUTO VRB01KT 6000 BKN032 OVC038 06/04 Q1019 TEMPO 4000 -RA
  • 240730Z AUTO 00000KT 5000 -RA BR FEW018 OVC037 05/04 Q1019 NOSIG
  • 240700Z AUTO 13001KT 6000 BKN036 OVC042 05/03 Q1019 TEMPO 4000 -RA
  • 240630Z AUTO VRB01KT 7000 OVC039 04/03 Q1019 TEMPO 4000 -RA
  • 240600Z AUTO 08002KT 5000 BR BKN040 BKN048 BKN062 03/03 Q1019 NOSIG
  • 240530Z AUTO VRB02KT 8000 FEW039 BKN048 BKN056 03/02 Q1019 TEMPO 4000 -RA
  • 240500Z AUTO 00000KT CAVOK 02/02 Q1020 TEMPO 4000 -RA

TAF TAF LFBE
Valide du 24 à 06h jusqu'au 25 à 06h UTC


240500Z 2406/2506 VRB02KT CAVOK
TEMPO 2406/2410 4000 -RA BKN030
FM241000 29010KT 9999 BKN030
TEMPO 2410/2417 4000 SHRA BKN025TCU
BECMG 2423/2501 VRB02KT
TEMPO 2502/2506 4000 RA BKN003
PROB30
TEMPO 2503/2506 0300 FG VV///



MET'MAP, la Météo Aéronautique d'un coup d'oeil ! - Copyright ORBIFLY Décembre 2007 - Disclaimer

ORBIFLY MET'MAP TEAM :

Programmation & Développement : Alexandra Zaïnal
Sur une idée originale de : Baudouin d'Aumeries
Soutien technique & logistique : Manuel Goepfert
Assistance : Marc-Olivier Méhu




SOURCES & CREDITS :

   NOAA